sensor_id;sensor_type;location;lat;lon;timestamp;temperature;humidity
8214;DHT22;4148;47.974;7.824;2023-08-01T00:00:01;20.40;99.90
8214;DHT22;4148;47.974;7.824;2023-08-01T00:02:32;20.60;99.90
8214;DHT22;4148;47.974;7.824;2023-08-01T00:05:01;20.80;99.90
8214;DHT22;4148;47.974;7.824;2023-08-01T00:07:29;20.80;99.90
8214;DHT22;4148;47.974;7.824;2023-08-01T00:09:57;20.80;99.90
8214;DHT22;4148;47.974;7.824;2023-08-01T00:12:25;20.80;99.90
8214;DHT22;4148;47.974;7.824;2023-08-01T00:14:53;20.80;99.90
8214;DHT22;4148;47.974;7.824;2023-08-01T00:17:20;20.80;99.90
8214;DHT22;4148;47.974;7.824;2023-08-01T00:19:48;20.70;99.90
8214;DHT22;4148;47.974;7.824;2023-08-01T00:22:17;20.80;99.90
8214;DHT22;4148;47.974;7.824;2023-08-01T00:24:45;20.80;99.90
8214;DHT22;4148;47.974;7.824;2023-08-01T00:27:14;20.70;99.90
8214;DHT22;4148;47.974;7.824;2023-08-01T00:29:42;20.70;99.90
8214;DHT22;4148;47.974;7.824;2023-08-01T00:32:10;20.70;99.90
8214;DHT22;4148;47.974;7.824;2023-08-01T00:34:38;20.60;99.90
8214;DHT22;4148;47.974;7.824;2023-08-01T00:37:06;20.60;99.90
8214;DHT22;4148;47.974;7.824;2023-08-01T00:39:35;20.50;99.90
8214;DHT22;4148;47.974;7.824;2023-08-01T00:42:03;20.50;99.90
8214;DHT22;4148;47.974;7.824;2023-08-01T00:44:31;20.50;99.90
8214;DHT22;4148;47.974;7.824;2023-08-01T00:46:59;20.40;99.90
8214;DHT22;4148;47.974;7.824;2023-08-01T00:49:27;20.40;99.90
8214;DHT22;4148;47.974;7.824;2023-08-01T00:51:55;20.30;99.90
8214;DHT22;4148;47.974;7.824;2023-08-01T00:54:23;20.30;99.90
8214;DHT22;4148;47.974;7.824;2023-08-01T00:56:53;20.30;99.90
8214;DHT22;4148;47.974;7.824;2023-08-01T00:59:21;20.30;99.90
8214;DHT22;4148;47.974;7.824;2023-08-01T01:01:49;20.30;99.90
8214;DHT22;4148;47.974;7.824;2023-08-01T01:04:16;20.30;99.90
8214;DHT22;4148;47.974;7.824;2023-08-01T01:06:47;20.20;99.90
8214;DHT22;4148;47.974;7.824;2023-08-01T01:09:17;20.20;99.90
8214;DHT22;4148;47.974;7.824;2023-08-01T01:11:46;20.10;99.90
8214;DHT22;4148;47.974;7.824;2023-08-01T01:14:15;20.30;99.90
8214;DHT22;4148;47.974;7.824;2023-08-01T01:16:43;20.40;99.90
8214;DHT22;4148;47.974;7.824;2023-08-01T01:19:11;20.50;99.90
8214;DHT22;4148;47.974;7.824;2023-08-01T01:21:42;20.70;99.90
8214;DHT22;4148;47.974;7.824;2023-08-01T01:24:11;20.90;99.90
8214;DHT22;4148;47.974;7.824;2023-08-01T01:26:40;20.90;99.90
8214;DHT22;4148;47.974;7.824;2023-08-01T01:29:09;21.00;99.90
8214;DHT22;4148;47.974;7.824;2023-08-01T01:31:37;21.00;99.90
8214;DHT22;4148;47.974;7.824;2023-08-01T01:34:08;20.90;99.90
8214;DHT22;4148;47.974;7.824;2023-08-01T01:36:36;21.00;99.90
8214;DHT22;4148;47.974;7.824;2023-08-01T01:39:06;21.00;99.90
8214;DHT22;4148;47.974;7.824;2023-08-01T01:41:33;21.00;99.90
8214;DHT22;4148;47.974;7.824;2023-08-01T01:44:01;21.00;99.90
8214;DHT22;4148;47.974;7.824;2023-08-01T01:46:29;21.00;99.90
8214;DHT22;4148;47.974;7.824;2023-08-01T01:48:57;21.10;99.90
8214;DHT22;4148;47.974;7.824;2023-08-01T01:51:25;21.20;99.90
8214;DHT22;4148;47.974;7.824;2023-08-01T01:53:53;21.20;99.90
8214;DHT22;4148;47.974;7.824;2023-08-01T01:56:23;21.30;99.90
8214;DHT22;4148;47.974;7.824;2023-08-01T01:58:50;21.30;99.90
8214;DHT22;4148;47.974;7.824;2023-08-01T02:01:18;21.30;99.90
8214;DHT22;4148;47.974;7.824;2023-08-01T02:03:46;21.30;99.90
8214;DHT22;4148;47.974;7.824;2023-08-01T02:06:14;21.30;99.90
8214;DHT22;4148;47.974;7.824;2023-08-01T02:08:42;21.40;99.90
8214;DHT22;4148;47.974;7.824;2023-08-01T02:11:10;21.40;99.90
8214;DHT22;4148;47.974;7.824;2023-08-01T02:13:39;21.40;99.90
8214;DHT22;4148;47.974;7.824;2023-08-01T02:16:07;21.30;99.90
8214;DHT22;4148;47.974;7.824;2023-08-01T02:18:35;21.30;99.90
8214;DHT22;4148;47.974;7.824;2023-08-01T02:21:03;21.30;99.90
8214;DHT22;4148;47.974;7.824;2023-08-01T02:23:31;21.20;99.90
8214;DHT22;4148;47.974;7.824;2023-08-01T02:26:00;21.20;99.90
8214;DHT22;4148;47.974;7.824;2023-08-01T02:28:28;21.30;99.90
8214;DHT22;4148;47.974;7.824;2023-08-01T02:30:57;21.40;99.90
8214;DHT22;4148;47.974;7.824;2023-08-01T02:33:25;21.40;99.90
8214;DHT22;4148;47.974;7.824;2023-08-01T02:35:53;21.40;99.90
8214;DHT22;4148;47.974;7.824;2023-08-01T02:38:21;21.40;99.90
8214;DHT22;4148;47.974;7.824;2023-08-01T02:40:48;21.40;99.90
8214;DHT22;4148;47.974;7.824;2023-08-01T02:43:16;21.40;99.90
8214;DHT22;4148;47.974;7.824;2023-08-01T02:45:45;21.40;99.90
8214;DHT22;4148;47.974;7.824;2023-08-01T02:48:16;21.40;99.90
8214;DHT22;4148;47.974;7.824;2023-08-01T02:50:43;21.40;99.90
8214;DHT22;4148;47.974;7.824;2023-08-01T02:53:13;21.40;99.90
8214;DHT22;4148;47.974;7.824;2023-08-01T02:55:41;21.30;99.90
8214;DHT22;4148;47.974;7.824;2023-08-01T02:58:09;21.30;99.90
8214;DHT22;4148;47.974;7.824;2023-08-01T03:00:38;21.30;99.90
8214;DHT22;4148;47.974;7.824;2023-08-01T03:03:07;21.30;99.90
8214;DHT22;4148;47.974;7.824;2023-08-01T03:05:37;21.30;99.90
8214;DHT22;4148;47.974;7.824;2023-08-01T03:08:05;21.20;99.90
8214;DHT22;4148;47.974;7.824;2023-08-01T03:10:33;21.20;99.90
8214;DHT22;4148;47.974;7.824;2023-08-01T03:13:03;21.20;99.90
8214;DHT22;4148;47.974;7.824;2023-08-01T03:15:31;21.10;99.90
8214;DHT22;4148;47.974;7.824;2023-08-01T03:17:59;21.00;99.90
8214;DHT22;4148;47.974;7.824;2023-08-01T03:20:27;21.00;99.90
8214;DHT22;4148;47.974;7.824;2023-08-01T03:22:56;21.00;99.90
8214;DHT22;4148;47.974;7.824;2023-08-01T03:25:24;21.00;99.90
8214;DHT22;4148;47.974;7.824;2023-08-01T03:27:52;21.00;99.90
8214;DHT22;4148;47.974;7.824;2023-08-01T03:30:21;20.90;99.90
8214;DHT22;4148;47.974;7.824;2023-08-01T03:32:48;20.90;99.90
8214;DHT22;4148;47.974;7.824;2023-08-01T03:35:17;20.80;99.90
8214;DHT22;4148;47.974;7.824;2023-08-01T03:37:44;20.70;99.90
8214;DHT22;4148;47.974;7.824;2023-08-01T03:40:14;20.70;99.90
8214;DHT22;4148;47.974;7.824;2023-08-01T03:42:42;20.60;99.90
8214;DHT22;4148;47.974;7.824;2023-08-01T03:45:10;20.60;99.90
8214;DHT22;4148;47.974;7.824;2023-08-01T03:47:38;20.60;99.90
8214;DHT22;4148;47.974;7.824;2023-08-01T03:50:06;20.50;99.90
8214;DHT22;4148;47.974;7.824;2023-08-01T03:52:34;20.50;99.90
8214;DHT22;4148;47.974;7.824;2023-08-01T03:55:02;20.40;99.90
8214;DHT22;4148;47.974;7.824;2023-08-01T03:57:32;20.40;99.90
8214;DHT22;4148;47.974;7.824;2023-08-01T04:00:00;20.40;99.90
8214;DHT22;4148;47.974;7.824;2023-08-01T04:02:29;20.30;99.90
8214;DHT22;4148;47.974;7.824;2023-08-01T04:04:57;20.30;99.90
8214;DHT22;4148;47.974;7.824;2023-08-01T04:07:25;20.30;99.90
8214;DHT22;4148;47.974;7.824;2023-08-01T04:09:53;20.30;99.90
8214;DHT22;4148;47.974;7.824;2023-08-01T04:12:20;20.30;99.90
8214;DHT22;4148;47.974;7.824;2023-08-01T04:14:50;20.20;99.90
8214;DHT22;4148;47.974;7.824;2023-08-01T04:17:18;20.10;99.90
8214;DHT22;4148;47.974;7.824;2023-08-01T04:19:45;20.00;99.90
8214;DHT22;4148;47.974;7.824;2023-08-01T04:22:13;19.80;99.90
8214;DHT22;4148;47.974;7.824;2023-08-01T04:24:41;19.70;99.90
8214;DHT22;4148;47.974;7.824;2023-08-01T04:27:09;19.60;99.90
8214;DHT22;4148;47.974;7.824;2023-08-01T04:29:37;19.50;99.90
8214;DHT22;4148;47.974;7.824;2023-08-01T04:32:07;19.40;99.90
8214;DHT22;4148;47.974;7.824;2023-08-01T04:34:35;19.30;99.90
8214;DHT22;4148;47.974;7.824;2023-08-01T04:37:03;19.30;99.90
8214;DHT22;4148;47.974;7.824;2023-08-01T04:39:31;19.40;99.90
8214;DHT22;4148;47.974;7.824;2023-08-01T04:41:59;19.30;99.90
8214;DHT22;4148;47.974;7.824;2023-08-01T04:44:27;19.30;99.90
8214;DHT22;4148;47.974;7.824;2023-08-01T04:46:56;19.10;99.90
8214;DHT22;4148;47.974;7.824;2023-08-01T04:49:25;19.10;99.90
8214;DHT22;4148;47.974;7.824;2023-08-01T04:51:53;19.00;99.90
8214;DHT22;4148;47.974;7.824;2023-08-01T04:54:21;19.00;99.90
8214;DHT22;4148;47.974;7.824;2023-08-01T04:56:49;19.00;99.90
8214;DHT22;4148;47.974;7.824;2023-08-01T04:59:17;18.90;99.90
8214;DHT22;4148;47.974;7.824;2023-08-01T05:01:45;18.80;99.90
8214;DHT22;4148;47.974;7.824;2023-08-01T05:04:13;18.70;99.90
8214;DHT22;4148;47.974;7.824;2023-08-01T05:06:42;18.60;99.90
8214;DHT22;4148;47.974;7.824;2023-08-01T05:09:10;18.50;99.90
8214;DHT22;4148;47.974;7.824;2023-08-01T05:11:38;18.40;99.90
8214;DHT22;4148;47.974;7.824;2023-08-01T05:14:06;18.20;99.90
8214;DHT22;4148;47.974;7.824;2023-08-01T05:16:34;18.20;99.90
8214;DHT22;4148;47.974;7.824;2023-08-01T05:19:02;18.00;99.90
8214;DHT22;4148;47.974;7.824;2023-08-01T05:21:29;18.00;99.90
8214;DHT22;4148;47.974;7.824;2023-08-01T05:23:59;17.90;99.90
8214;DHT22;4148;47.974;7.824;2023-08-01T05:26:26;17.80;99.90
8214;DHT22;4148;47.974;7.824;2023-08-01T05:28:54;17.80;99.90
8214;DHT22;4148;47.974;7.824;2023-08-01T05:31:22;17.80;99.90
8214;DHT22;4148;47.974;7.824;2023-08-01T05:33:50;17.70;99.90
8214;DHT22;4148;47.974;7.824;2023-08-01T05:36:18;17.70;99.90
8214;DHT22;4148;47.974;7.824;2023-08-01T05:38:46;17.60;99.90
8214;DHT22;4148;47.974;7.824;2023-08-01T05:41:15;17.70;99.90
8214;DHT22;4148;47.974;7.824;2023-08-01T05:43:43;17.70;99.90
8214;DHT22;4148;47.974;7.824;2023-08-01T05:46:11;17.70;99.90
8214;DHT22;4148;47.974;7.824;2023-08-01T05:48:38;17.70;99.90
8214;DHT22;4148;47.974;7.824;2023-08-01T05:51:06;17.70;99.90
8214;DHT22;4148;47.974;7.824;2023-08-01T05:53:34;17.70;99.90
8214;DHT22;4148;47.974;7.824;2023-08-01T05:56:02;17.70;99.90
8214;DHT22;4148;47.974;7.824;2023-08-01T05:58:32;17.80;99.90
8214;DHT22;4148;47.974;7.824;2023-08-01T06:01:00;17.80;99.90
8214;DHT22;4148;47.974;7.824;2023-08-01T06:03:28;17.80;99.90
8214;DHT22;4148;47.974;7.824;2023-08-01T06:05:56;17.90;99.90
8214;DHT22;4148;47.974;7.824;2023-08-01T06:08:24;18.00;99.90
8214;DHT22;4148;47.974;7.824;2023-08-01T06:10:52;18.00;99.90
8214;DHT22;4148;47.974;7.824;2023-08-01T06:13:20;18.10;99.90
8214;DHT22;4148;47.974;7.824;2023-08-01T06:15:49;18.00;99.90
8214;DHT22;4148;47.974;7.824;2023-08-01T06:18:18;18.00;99.90
8214;DHT22;4148;47.974;7.824;2023-08-01T06:20:46;17.90;99.90
8214;DHT22;4148;47.974;7.824;2023-08-01T06:23:14;17.80;99.90
8214;DHT22;4148;47.974;7.824;2023-08-01T06:25:42;17.70;99.90
8214;DHT22;4148;47.974;7.824;2023-08-01T06:28:09;17.60;99.90
8214;DHT22;4148;47.974;7.824;2023-08-01T06:30:37;17.60;99.90
8214;DHT22;4148;47.974;7.824;2023-08-01T06:33:07;17.60;99.90
8214;DHT22;4148;47.974;7.824;2023-08-01T06:35:35;17.60;99.90
8214;DHT22;4148;47.974;7.824;2023-08-01T06:38:03;17.60;99.90
8214;DHT22;4148;47.974;7.824;2023-08-01T06:40:31;17.60;99.90
8214;DHT22;4148;47.974;7.824;2023-08-01T06:42:59;17.60;99.90
8214;DHT22;4148;47.974;7.824;2023-08-01T06:45:26;17.70;99.90
8214;DHT22;4148;47.974;7.824;2023-08-01T06:47:54;17.70;99.90
8214;DHT22;4148;47.974;7.824;2023-08-01T06:50:24;17.70;99.90
8214;DHT22;4148;47.974;7.824;2023-08-01T06:52:52;17.70;99.90
8214;DHT22;4148;47.974;7.824;2023-08-01T06:55:20;17.70;99.90
8214;DHT22;4148;47.974;7.824;2023-08-01T06:57:47;17.80;99.90
8214;DHT22;4148;47.974;7.824;2023-08-01T07:00:15;17.80;99.90
8214;DHT22;4148;47.974;7.824;2023-08-01T07:02:43;17.80;99.90
8214;DHT22;4148;47.974;7.824;2023-08-01T07:05:11;17.90;99.90
8214;DHT22;4148;47.974;7.824;2023-08-01T07:07:41;17.90;99.90
8214;DHT22;4148;47.974;7.824;2023-08-01T07:10:09;18.10;99.90
8214;DHT22;4148;47.974;7.824;2023-08-01T07:12:37;18.20;99.90
8214;DHT22;4148;47.974;7.824;2023-08-01T07:15:05;18.20;99.90
8214;DHT22;4148;47.974;7.824;2023-08-01T07:17:34;18.20;99.90
8214;DHT22;4148;47.974;7.824;2023-08-01T07:20:02;18.20;99.90
8214;DHT22;4148;47.974;7.824;2023-08-01T07:22:30;18.20;99.90
8214;DHT22;4148;47.974;7.824;2023-08-01T07:24:59;18.20;99.90
8214;DHT22;4148;47.974;7.824;2023-08-01T07:27:27;18.20;99.90
8214;DHT22;4148;47.974;7.824;2023-08-01T07:29:55;18.20;99.90
8214;DHT22;4148;47.974;7.824;2023-08-01T07:32:23;18.10;99.90
8214;DHT22;4148;47.974;7.824;2023-08-01T07:34:51;18.10;99.90
8214;DHT22;4148;47.974;7.824;2023-08-01T07:37:19;18.10;99.90
8214;DHT22;4148;47.974;7.824;2023-08-01T07:39:47;18.10;99.90
8214;DHT22;4148;47.974;7.824;2023-08-01T07:42:16;18.00;99.90
8214;DHT22;4148;47.974;7.824;2023-08-01T07:44:44;17.90;99.90
8214;DHT22;4148;47.974;7.824;2023-08-01T07:47:11;17.90;99.90
8214;DHT22;4148;47.974;7.824;2023-08-01T07:49:39;17.80;99.90
8214;DHT22;4148;47.974;7.824;2023-08-01T07:52:07;17.70;99.90
8214;DHT22;4148;47.974;7.824;2023-08-01T07:54:37;17.60;99.90
8214;DHT22;4148;47.974;7.824;2023-08-01T07:57:06;17.50;99.90
8214;DHT22;4148;47.974;7.824;2023-08-01T07:59:35;17.50;99.90
8214;DHT22;4148;47.974;7.824;2023-08-01T08:02:03;17.40;99.90
8214;DHT22;4148;47.974;7.824;2023-08-01T08:04:31;17.40;99.90
8214;DHT22;4148;47.974;7.824;2023-08-01T08:06:59;17.30;99.90
8214;DHT22;4148;47.974;7.824;2023-08-01T08:09:28;17.30;99.90
8214;DHT22;4148;47.974;7.824;2023-08-01T08:11:55;17.30;99.90
8214;DHT22;4148;47.974;7.824;2023-08-01T08:14:24;17.30;99.90
8214;DHT22;4148;47.974;7.824;2023-08-01T08:16:53;17.40;99.90
8214;DHT22;4148;47.974;7.824;2023-08-01T08:19:21;17.40;99.90
8214;DHT22;4148;47.974;7.824;2023-08-01T08:21:51;17.40;99.90
8214;DHT22;4148;47.974;7.824;2023-08-01T08:24:19;17.40;99.90
8214;DHT22;4148;47.974;7.824;2023-08-01T08:26:47;17.40;99.90
8214;DHT22;4148;47.974;7.824;2023-08-01T08:29:15;17.50;99.90
8214;DHT22;4148;47.974;7.824;2023-08-01T08:31:43;17.50;99.90
8214;DHT22;4148;47.974;7.824;2023-08-01T08:34:12;17.60;99.90
8214;DHT22;4148;47.974;7.824;2023-08-01T08:36:40;17.60;99.90
8214;DHT22;4148;47.974;7.824;2023-08-01T08:39:09;17.70;99.90
8214;DHT22;4148;47.974;7.824;2023-08-01T08:41:38;17.80;99.90
8214;DHT22;4148;47.974;7.824;2023-08-01T08:44:10;18.00;99.90
8214;DHT22;4148;47.974;7.824;2023-08-01T08:46:43;18.10;99.90
8214;DHT22;4148;47.974;7.824;2023-08-01T08:49:12;18.00;99.90
8214;DHT22;4148;47.974;7.824;2023-08-01T08:51:43;18.00;99.90
8214;DHT22;4148;47.974;7.824;2023-08-01T08:54:12;18.00;99.90
8214;DHT22;4148;47.974;7.824;2023-08-01T08:56:41;18.00;99.90
8214;DHT22;4148;47.974;7.824;2023-08-01T08:59:09;18.00;99.90
8214;DHT22;4148;47.974;7.824;2023-08-01T09:01:37;18.00;99.90
8214;DHT22;4148;47.974;7.824;2023-08-01T09:04:06;18.10;99.90
8214;DHT22;4148;47.974;7.824;2023-08-01T09:06:40;18.20;99.90
8214;DHT22;4148;47.974;7.824;2023-08-01T09:09:12;18.20;99.90
8214;DHT22;4148;47.974;7.824;2023-08-01T09:11:46;18.30;99.90
8214;DHT22;4148;47.974;7.824;2023-08-01T09:14:14;18.40;99.90
8214;DHT22;4148;47.974;7.824;2023-08-01T09:16:43;18.50;99.90
8214;DHT22;4148;47.974;7.824;2023-08-01T09:19:16;18.50;99.90
8214;DHT22;4148;47.974;7.824;2023-08-01T09:21:46;18.60;99.90
8214;DHT22;4148;47.974;7.824;2023-08-01T09:24:15;18.70;99.90
8214;DHT22;4148;47.974;7.824;2023-08-01T09:26:44;18.90;99.90
8214;DHT22;4148;47.974;7.824;2023-08-01T09:29:12;19.10;99.90
8214;DHT22;4148;47.974;7.824;2023-08-01T09:31:41;19.20;99.90
8214;DHT22;4148;47.974;7.824;2023-08-01T09:34:19;19.20;99.90
8214;DHT22;4148;47.974;7.824;2023-08-01T09:36:48;19.30;99.90
8214;DHT22;4148;47.974;7.824;2023-08-01T09:39:18;19.20;99.90
8214;DHT22;4148;47.974;7.824;2023-08-01T09:41:46;19.20;99.90
8214;DHT22;4148;47.974;7.824;2023-08-01T09:44:16;19.20;99.90
8214;DHT22;4148;47.974;7.824;2023-08-01T09:46:44;19.30;99.90
8214;DHT22;4148;47.974;7.824;2023-08-01T09:49:22;19.30;99.90
8214;DHT22;4148;47.974;7.824;2023-08-01T09:51:51;19.30;99.90
8214;DHT22;4148;47.974;7.824;2023-08-01T09:54:20;19.40;99.90
8214;DHT22;4148;47.974;7.824;2023-08-01T09:56:50;19.40;99.90
8214;DHT22;4148;47.974;7.824;2023-08-01T09:59:20;19.50;99.90
8214;DHT22;4148;47.974;7.824;2023-08-01T10:01:49;19.60;99.90
8214;DHT22;4148;47.974;7.824;2023-08-01T10:04:19;19.80;99.90
8214;DHT22;4148;47.974;7.824;2023-08-01T10:06:54;19.90;99.90
8214;DHT22;4148;47.974;7.824;2023-08-01T10:09:22;19.90;99.90
8214;DHT22;4148;47.974;7.824;2023-08-01T10:11:51;19.90;99.90
8214;DHT22;4148;47.974;7.824;2023-08-01T10:14:20;19.80;99.90
8214;DHT22;4148;47.974;7.824;2023-08-01T10:16:48;19.70;99.90
8214;DHT22;4148;47.974;7.824;2023-08-01T10:19:17;19.70;99.90
8214;DHT22;4148;47.974;7.824;2023-08-01T10:21:47;19.70;99.90
8214;DHT22;4148;47.974;7.824;2023-08-01T10:24:16;19.80;99.90
8214;DHT22;4148;47.974;7.824;2023-08-01T10:26:45;19.80;99.90
8214;DHT22;4148;47.974;7.824;2023-08-01T10:29:13;19.80;99.90
8214;DHT22;4148;47.974;7.824;2023-08-01T10:31:51;19.80;99.90
8214;DHT22;4148;47.974;7.824;2023-08-01T10:34:20;19.90;99.90
8214;DHT22;4148;47.974;7.824;2023-08-01T10:36:54;20.00;99.90
8214;DHT22;4148;47.974;7.824;2023-08-01T10:39:25;20.20;99.90
8214;DHT22;4148;47.974;7.824;2023-08-01T10:42:00;20.50;99.90
8214;DHT22;4148;47.974;7.824;2023-08-01T10:44:28;20.60;99.90
8214;DHT22;4148;47.974;7.824;2023-08-01T10:47:00;20.80;99.90
8214;DHT22;4148;47.974;7.824;2023-08-01T10:49:35;20.80;99.90
8214;DHT22;4148;47.974;7.824;2023-08-01T10:52:08;20.70;99.90
8214;DHT22;4148;47.974;7.824;2023-08-01T10:54:45;20.70;99.90
8214;DHT22;4148;47.974;7.824;2023-08-01T10:57:16;20.70;99.90
8214;DHT22;4148;47.974;7.824;2023-08-01T10:59:44;20.70;99.90
8214;DHT22;4148;47.974;7.824;2023-08-01T11:02:20;20.60;99.90
8214;DHT22;4148;47.974;7.824;2023-08-01T11:04:55;20.50;99.90
8214;DHT22;4148;47.974;7.824;2023-08-01T11:07:24;20.80;99.90
8214;DHT22;4148;47.974;7.824;2023-08-01T11:10:04;21.20;99.90
8214;DHT22;4148;47.974;7.824;2023-08-01T11:12:34;21.50;99.90
8214;DHT22;4148;47.974;7.824;2023-08-01T11:15:05;21.90;99.90
8214;DHT22;4148;47.974;7.824;2023-08-01T11:17:35;22.30;99.90
8214;DHT22;4148;47.974;7.824;2023-08-01T11:20:05;22.60;99.90
8214;DHT22;4148;47.974;7.824;2023-08-01T11:22:34;22.90;99.90
8214;DHT22;4148;47.974;7.824;2023-08-01T11:25:04;23.20;99.90
8214;DHT22;4148;47.974;7.824;2023-08-01T11:27:34;23.50;99.90
8214;DHT22;4148;47.974;7.824;2023-08-01T11:30:02;23.60;99.90
8214;DHT22;4148;47.974;7.824;2023-08-01T11:32:33;23.60;99.90
8214;DHT22;4148;47.974;7.824;2023-08-01T11:35:02;23.60;99.90
8214;DHT22;4148;47.974;7.824;2023-08-01T11:37:30;23.40;99.90
8214;DHT22;4148;47.974;7.824;2023-08-01T11:39:59;23.40;99.90
8214;DHT22;4148;47.974;7.824;2023-08-01T11:42:31;23.50;99.90
8214;DHT22;4148;47.974;7.824;2023-08-01T11:45:10;23.70;99.90
8214;DHT22;4148;47.974;7.824;2023-08-01T11:47:45;23.80;99.90
8214;DHT22;4148;47.974;7.824;2023-08-01T11:50:14;23.70;99.90
8214;DHT22;4148;47.974;7.824;2023-08-01T11:52:46;23.70;99.90
8214;DHT22;4148;47.974;7.824;2023-08-01T11:55:22;23.60;99.90
8214;DHT22;4148;47.974;7.824;2023-08-01T11:57:55;23.30;99.90
8214;DHT22;4148;47.974;7.824;2023-08-01T12:00:25;23.10;99.90
8214;DHT22;4148;47.974;7.824;2023-08-01T12:03:03;23.20;99.90
8214;DHT22;4148;47.974;7.824;2023-08-01T12:05:32;23.10;99.90
8214;DHT22;4148;47.974;7.824;2023-08-01T12:08:10;22.80;99.90
8214;DHT22;4148;47.974;7.824;2023-08-01T12:10:39;22.70;99.90
8214;DHT22;4148;47.974;7.824;2023-08-01T12:13:19;22.70;99.90
8214;DHT22;4148;47.974;7.824;2023-08-01T12:15:47;22.80;99.90
8214;DHT22;4148;47.974;7.824;2023-08-01T12:18:20;22.90;99.90
8214;DHT22;4148;47.974;7.824;2023-08-01T12:21:08;23.10;99.90
8214;DHT22;4148;47.974;7.824;2023-08-01T12:23:36;23.30;99.90
8214;DHT22;4148;47.974;7.824;2023-08-01T12:26:04;23.40;99.90
8214;DHT22;4148;47.974;7.824;2023-08-01T12:28:33;23.40;99.90
8214;DHT22;4148;47.974;7.824;2023-08-01T12:31:01;23.40;99.90
8214;DHT22;4148;47.974;7.824;2023-08-01T12:33:30;23.20;99.90
8214;DHT22;4148;47.974;7.824;2023-08-01T12:35:58;23.10;99.90
8214;DHT22;4148;47.974;7.824;2023-08-01T12:38:26;23.00;99.90
8214;DHT22;4148;47.974;7.824;2023-08-01T12:40:54;23.00;99.90
8214;DHT22;4148;47.974;7.824;2023-08-01T12:43:22;23.00;99.90
8214;DHT22;4148;47.974;7.824;2023-08-01T12:45:51;23.10;99.90
8214;DHT22;4148;47.974;7.824;2023-08-01T12:48:21;23.10;99.90
8214;DHT22;4148;47.974;7.824;2023-08-01T12:50:49;23.10;99.90
8214;DHT22;4148;47.974;7.824;2023-08-01T12:53:17;23.10;99.90
8214;DHT22;4148;47.974;7.824;2023-08-01T12:55:46;23.10;99.90
8214;DHT22;4148;47.974;7.824;2023-08-01T12:58:14;23.10;99.90
8214;DHT22;4148;47.974;7.824;2023-08-01T13:00:43;23.20;99.90
8214;DHT22;4148;47.974;7.824;2023-08-01T13:03:13;23.20;99.90
8214;DHT22;4148;47.974;7.824;2023-08-01T13:05:42;23.20;99.90
8214;DHT22;4148;47.974;7.824;2023-08-01T13:08:10;23.20;99.90
8214;DHT22;4148;47.974;7.824;2023-08-01T13:10:38;23.20;99.90
8214;DHT22;4148;47.974;7.824;2023-08-01T13:13:06;23.30;99.90
8214;DHT22;4148;47.974;7.824;2023-08-01T13:15:34;23.30;99.90
8214;DHT22;4148;47.974;7.824;2023-08-01T13:18:02;23.20;99.90
8214;DHT22;4148;47.974;7.824;2023-08-01T13:20:31;23.10;99.90
8214;DHT22;4148;47.974;7.824;2023-08-01T13:23:03;23.10;99.90
8214;DHT22;4148;47.974;7.824;2023-08-01T13:25:31;23.00;99.90
8214;DHT22;4148;47.974;7.824;2023-08-01T13:27:58;22.90;99.90
8214;DHT22;4148;47.974;7.824;2023-08-01T13:30:26;22.80;99.90
8214;DHT22;4148;47.974;7.824;2023-08-01T13:32:54;22.80;99.90
8214;DHT22;4148;47.974;7.824;2023-08-01T13:35:22;22.60;99.90
8214;DHT22;4148;47.974;7.824;2023-08-01T13:37:51;22.30;99.90
8214;DHT22;4148;47.974;7.824;2023-08-01T13:40:19;22.20;99.90
8214;DHT22;4148;47.974;7.824;2023-08-01T13:42:47;22.20;99.90
8214;DHT22;4148;47.974;7.824;2023-08-01T13:45:15;22.10;99.90
8214;DHT22;4148;47.974;7.824;2023-08-01T13:47:43;22.10;99.90
8214;DHT22;4148;47.974;7.824;2023-08-01T13:50:11;22.10;99.90
8214;DHT22;4148;47.974;7.824;2023-08-01T13:52:39;22.00;99.90
8214;DHT22;4148;47.974;7.824;2023-08-01T13:55:09;22.00;99.90
8214;DHT22;4148;47.974;7.824;2023-08-01T13:57:37;22.00;99.90
8214;DHT22;4148;47.974;7.824;2023-08-01T14:00:06;22.20;99.90
8214;DHT22;4148;47.974;7.824;2023-08-01T14:02:39;22.30;99.90
8214;DHT22;4148;47.974;7.824;2023-08-01T14:05:08;22.50;99.90
8214;DHT22;4148;47.974;7.824;2023-08-01T14:07:36;22.60;99.90
8214;DHT22;4148;47.974;7.824;2023-08-01T14:10:09;22.60;99.90
8214;DHT22;4148;47.974;7.824;2023-08-01T14:12:37;22.70;99.90
8214;DHT22;4148;47.974;7.824;2023-08-01T14:15:06;22.60;99.90
8214;DHT22;4148;47.974;7.824;2023-08-01T14:17:34;22.60;99.90
8214;DHT22;4148;47.974;7.824;2023-08-01T14:20:02;22.50;99.90
8214;DHT22;4148;47.974;7.824;2023-08-01T14:22:31;22.50;99.90
8214;DHT22;4148;47.974;7.824;2023-08-01T14:24:59;22.40;99.90
8214;DHT22;4148;47.974;7.824;2023-08-01T14:27:29;22.40;99.90
8214;DHT22;4148;47.974;7.824;2023-08-01T14:29:56;22.40;99.90
8214;DHT22;4148;47.974;7.824;2023-08-01T14:32:24;22.50;99.90
8214;DHT22;4148;47.974;7.824;2023-08-01T14:34:52;22.50;99.90
8214;DHT22;4148;47.974;7.824;2023-08-01T14:37:20;22.50;99.90
8214;DHT22;4148;47.974;7.824;2023-08-01T14:39:50;22.50;99.90
8214;DHT22;4148;47.974;7.824;2023-08-01T14:42:18;22.50;99.90
8214;DHT22;4148;47.974;7.824;2023-08-01T14:44:52;22.50;99.90
8214;DHT22;4148;47.974;7.824;2023-08-01T14:47:21;22.50;99.90
8214;DHT22;4148;47.974;7.824;2023-08-01T14:49:49;22.60;99.90
8214;DHT22;4148;47.974;7.824;2023-08-01T14:52:17;22.60;99.90
8214;DHT22;4148;47.974;7.824;2023-08-01T14:54:51;22.60;99.90
8214;DHT22;4148;47.974;7.824;2023-08-01T14:57:19;22.50;99.90
8214;DHT22;4148;47.974;7.824;2023-08-01T14:59:47;22.40;99.90
8214;DHT22;4148;47.974;7.824;2023-08-01T15:02:16;22.30;99.90
8214;DHT22;4148;47.974;7.824;2023-08-01T15:04:44;22.20;99.90
8214;DHT22;4148;47.974;7.824;2023-08-01T15:07:12;22.20;99.90
8214;DHT22;4148;47.974;7.824;2023-08-01T15:09:42;22.30;99.90
8214;DHT22;4148;47.974;7.824;2023-08-01T15:12:10;22.30;99.90
8214;DHT22;4148;47.974;7.824;2023-08-01T15:14:40;22.30;99.90
8214;DHT22;4148;47.974;7.824;2023-08-01T15:17:08;22.20;99.90
8214;DHT22;4148;47.974;7.824;2023-08-01T15:19:37;22.20;99.90
8214;DHT22;4148;47.974;7.824;2023-08-01T15:22:06;22.10;99.90
8214;DHT22;4148;47.974;7.824;2023-08-01T15:24:34;22.00;99.90
8214;DHT22;4148;47.974;7.824;2023-08-01T15:27:02;21.90;99.90
8214;DHT22;4148;47.974;7.824;2023-08-01T15:29:30;21.90;99.90
8214;DHT22;4148;47.974;7.824;2023-08-01T15:32:00;21.90;99.90
8214;DHT22;4148;47.974;7.824;2023-08-01T15:34:28;22.00;99.90
8214;DHT22;4148;47.974;7.824;2023-08-01T15:36:58;22.00;99.90
8214;DHT22;4148;47.974;7.824;2023-08-01T15:39:26;22.00;99.90
8214;DHT22;4148;47.974;7.824;2023-08-01T15:41:53;22.00;99.90
8214;DHT22;4148;47.974;7.824;2023-08-01T15:44:21;22.00;99.90
8214;DHT22;4148;47.974;7.824;2023-08-01T15:46:49;21.90;99.90
8214;DHT22;4148;47.974;7.824;2023-08-01T15:49:17;22.00;99.90
8214;DHT22;4148;47.974;7.824;2023-08-01T15:51:45;21.90;99.90
8214;DHT22;4148;47.974;7.824;2023-08-01T15:54:14;21.90;99.90
8214;DHT22;4148;47.974;7.824;2023-08-01T15:56:42;21.80;99.90
8214;DHT22;4148;47.974;7.824;2023-08-01T15:59:10;21.80;99.90
8214;DHT22;4148;47.974;7.824;2023-08-01T16:01:38;21.80;99.90
8214;DHT22;4148;47.974;7.824;2023-08-01T16:04:06;21.80;99.90
8214;DHT22;4148;47.974;7.824;2023-08-01T16:06:35;21.80;99.90
8214;DHT22;4148;47.974;7.824;2023-08-01T16:09:03;21.90;99.90
8214;DHT22;4148;47.974;7.824;2023-08-01T16:11:32;21.90;99.90